createdAt,value
2023-04-08T13:06:46.201Z,94159.47
2023-04-08T13:09:12.509Z,94163.38
2023-04-08T13:11:38.851Z,94165.25
2023-04-08T13:14:05.149Z,94159.41
2023-04-08T13:16:32.084Z,94157.19
2023-04-08T13:18:58.445Z,94153.53
2023-04-08T13:21:24.847Z,94151.25
2023-04-08T13:23:51.228Z,94154.38
2023-04-08T13:26:18.544Z,94152.16
2023-04-08T13:28:57.149Z,94153.69
2023-04-08T13:31:24.450Z,94147.63
2023-04-08T13:33:50.771Z,94145.94
2023-04-08T13:36:18.127Z,94142.69
2023-04-08T13:38:46.097Z,94140.75
2023-04-08T13:41:15.550Z,94139.25
2023-04-08T13:43:42.112Z,94143.59
2023-04-08T13:46:08.476Z,94136.25
2023-04-08T13:48:34.803Z,94139.72
2023-04-08T13:51:11.217Z,94139.50
2023-04-08T13:53:37.542Z,94138.78
2023-04-08T13:56:03.889Z,94138.03
2023-04-08T13:58:30.453Z,94145.59
2023-04-08T14:00:57.143Z,94142.97
2023-04-08T14:03:26.356Z,94141.81
2023-04-08T14:05:53.792Z,94141.66
2023-04-08T14:08:25.872Z,94142.34
2023-04-08T14:10:55.613Z,94139.13
2023-04-08T14:13:21.902Z,94142.22
2023-04-08T14:15:49.585Z,94143.97
2023-04-08T14:18:18.637Z,94141.75
2023-04-08T14:20:44.975Z,94146.34
2023-04-08T14:23:13.390Z,94146.03
2023-04-08T14:25:39.745Z,94149.16
2023-04-08T14:28:06.307Z,94151.72
2023-04-08T14:30:39.062Z,94146.41
2023-04-08T14:33:06.141Z,94151.84
2023-04-08T14:35:32.926Z,94142.84
2023-04-08T14:38:05.975Z,94138.78
2023-04-08T14:40:33.284Z,94151.03
2023-04-08T14:42:59.588Z,94141.66
2023-04-08T14:45:25.910Z,94146.78
2023-04-08T14:47:52.311Z,94148.25
2023-04-08T14:50:19.492Z,94144.84
2023-04-08T14:52:48.917Z,94155.78
2023-04-08T14:55:22.580Z,94149.66
2023-04-08T14:57:48.990Z,94150.63
2023-04-08T15:00:15.557Z,94155.50
2023-04-08T15:02:42.062Z,94161.66
2023-04-08T15:05:08.620Z,94165.28
2023-04-08T15:07:37.059Z,94158.78
2023-04-08T15:10:03.448Z,94162.19
2023-04-08T15:12:29.807Z,94171.56
2023-04-08T15:14:56.310Z,94164.09
2023-04-08T15:17:32.249Z,94163.75
2023-04-08T15:19:59.023Z,94173.81
2023-04-08T15:22:25.658Z,94176.41
2023-04-08T15:24:51.971Z,94173.47
2023-04-08T15:27:19.621Z,94173.47
2023-04-08T15:29:46.090Z,94176.91
2023-04-08T15:32:12.373Z,94189.03
2023-04-08T15:34:38.661Z,94184.19
2023-04-08T15:37:06.413Z,94185.16
2023-04-08T15:39:32.731Z,94185.50
2023-04-08T15:41:59.087Z,94179.66
2023-04-08T15:44:25.522Z,94184.00
2023-04-08T15:46:52.038Z,94180.94
2023-04-08T15:49:18.330Z,94188.72
2023-04-08T15:51:44.772Z,94189.72
2023-04-08T15:54:11.597Z,94188.09
2023-04-08T15:56:37.901Z,94187.75
2023-04-08T15:59:04.173Z,94193.44
2023-04-08T16:01:31.056Z,94200.09
2023-04-08T16:03:57.493Z,94202.00
2023-04-08T16:06:23.856Z,94198.47
2023-04-08T16:08:50.653Z,94200.88
2023-04-08T16:11:17.560Z,94204.28
2023-04-08T16:13:43.911Z,94205.25
2023-04-08T16:16:12.211Z,94214.66
2023-04-08T16:18:39.012Z,94223.75
2023-04-08T16:21:08.587Z,94223.91
2023-04-08T16:23:37.458Z,94219.38
2023-04-08T16:26:04.563Z,94225.34
2023-04-08T16:28:30.952Z,94228.56
2023-04-08T16:30:57.254Z,94230.50
2023-04-08T16:33:29.692Z,94229.25
2023-04-08T16:35:56.960Z,94231.16
2023-04-08T16:38:24.401Z,94226.13
2023-04-08T16:40:51.237Z,94226.44
2023-04-08T16:43:17.693Z,94234.06
2023-04-08T16:45:44.993Z,94234.09
2023-04-08T16:48:12.690Z,94233.09
2023-04-08T16:50:39.412Z,94237.16
2023-04-08T16:53:05.737Z,94237.78
2023-04-08T16:55:35.952Z,94246.38
2023-04-08T16:58:02.972Z,94244.09
2023-04-08T17:00:30.003Z,94248.31
2023-04-08T17:02:58.637Z,94250.72
2023-04-08T17:05:26.178Z,94247.97
2023-04-08T17:07:52.936Z,94246.31
2023-04-08T17:10:19.526Z,94256.56
2023-04-08T17:12:46.393Z,94250.53
2023-04-08T17:15:12.688Z,94252.81
2023-04-08T17:17:39.056Z,94258.00
2023-04-08T17:20:05.645Z,94257.66
2023-04-08T17:22:31.925Z,94260.09
2023-04-08T17:24:58.747Z,94262.34
2023-04-08T17:27:25.038Z,94267.19
2023-04-08T17:29:57.359Z,94270.22
2023-04-08T17:32:24.657Z,94262.81
2023-04-08T17:34:51.757Z,94267.97
2023-04-08T17:37:18.120Z,94265.41
2023-04-08T17:39:44.643Z,94271.94
2023-04-08T17:42:11.312Z,94270.31
2023-04-08T17:44:37.869Z,94272.59
2023-04-08T17:47:04.274Z,94275.16
2023-04-08T17:49:30.759Z,94265.16
2023-04-08T17:51:57.666Z,94270.91
2023-04-08T17:54:24.890Z,94271.88
2023-04-08T17:56:51.235Z,94281.75
2023-04-08T17:59:17.557Z,94280.09
2023-04-08T18:01:44.068Z,94279.91
2023-04-08T18:04:12.340Z,94282.53
2023-04-08T18:06:38.848Z,94281.00
2023-04-08T18:09:05.200Z,94284.53
2023-04-08T18:11:31.568Z,94291.88
2023-04-08T18:14:02.050Z,94292.81
2023-04-08T18:16:28.444Z,94295.72
2023-04-08T18:18:54.734Z,94298.31
2023-04-08T18:21:22.153Z,94296.38
2023-04-08T18:23:49.850Z,94303.88
2023-04-08T18:26:16.598Z,94308.06
2023-04-08T18:28:43.084Z,94311.59
2023-04-08T18:31:09.428Z,94306.38
2023-04-08T18:33:36.317Z,94305.31
2023-04-08T18:36:09.534Z,94324.03
2023-04-08T18:38:36.565Z,94322.28
2023-04-08T18:41:03.676Z,94322.28
2023-04-08T18:43:30.009Z,94328.78
2023-04-08T18:45:56.381Z,94325.22
2023-04-08T18:48:22.756Z,94333.50
2023-04-08T18:50:49.114Z,94325.00
2023-04-08T18:53:15.384Z,94331.19
2023-04-08T18:55:42.078Z,94341.06
2023-04-08T18:58:08.370Z,94341.47
2023-04-08T19:00:35.649Z,94344.94
2023-04-08T19:03:03.412Z,94347.81
2023-04-08T19:05:31.461Z,94351.91
2023-04-08T19:07:57.993Z,94356.00
2023-04-08T19:10:25.314Z,94352.25
2023-04-08T19:12:52.023Z,94362.91
2023-04-08T19:15:18.374Z,94364.38
2023-04-08T19:17:44.689Z,94363.28
2023-04-08T19:20:11.340Z,94363.50
2023-04-08T19:22:38.533Z,94368.25
2023-04-08T19:25:05.089Z,94368.75
2023-04-08T19:27:31.860Z,94371.91
2023-04-08T19:29:58.314Z,94369.84
2023-04-08T19:32:24.698Z,94375.72
2023-04-08T19:34:51.026Z,94371.19
2023-04-08T19:37:17.362Z,94363.44
2023-04-08T19:39:43.633Z,94369.56
2023-04-08T19:42:10.869Z,94373.13
2023-04-08T19:44:37.159Z,94376.72
2023-04-08T19:47:04.535Z,94381.56
2023-04-08T19:49:30.847Z,94379.03
2023-04-08T19:51:57.203Z,94389.69
2023-04-08T19:54:23.844Z,94390.03
2023-04-08T19:56:50.150Z,94390.94
2023-04-08T19:59:16.710Z,94386.72
2023-04-08T20:01:43.091Z,94395.75
2023-04-08T20:04:09.511Z,94393.84
2023-04-08T20:06:36.610Z,94395.44
2023-04-08T20:09:05.560Z,94388.34
2023-04-08T20:11:32.614Z,94392.50
2023-04-08T20:13:59.102Z,94392.50
2023-04-08T20:16:25.583Z,94387.59
2023-04-08T20:18:52.045Z,94390.06
2023-04-08T20:21:18.625Z,94382.72
2023-04-08T20:23:45.017Z,94389.84
2023-04-08T20:26:12.351Z,94392.78
2023-04-08T20:28:38.804Z,94388.56
2023-04-08T20:31:05.535Z,94391.16
2023-04-08T20:33:31.854Z,94390.13
2023-04-08T20:35:58.199Z,94393.81
2023-04-08T20:38:24.937Z,94393.00
2023-04-08T20:40:51.203Z,94389.09
2023-04-08T20:43:17.484Z,94385.25
2023-04-08T20:45:49.282Z,94397.53
2023-04-08T20:48:16.497Z,94392.34
2023-04-08T20:50:42.776Z,94397.81
2023-04-08T20:53:10.184Z,94398.09
2023-04-08T20:55:36.487Z,94391.28
2023-04-08T20:58:05.669Z,94384.22
2023-04-08T21:00:32.028Z,94389.69
2023-04-08T21:02:58.388Z,94380.22
2023-04-08T21:05:24.836Z,94392.50
2023-04-08T21:07:51.150Z,94385.91
2023-04-08T21:10:17.737Z,94382.72
2023-04-08T21:12:45.041Z,94376.28
2023-04-08T21:15:11.395Z,94383.34
2023-04-08T21:17:37.773Z,94377.66
2023-04-08T21:20:04.572Z,94376.31
2023-04-08T21:22:32.175Z,94367.91
2023-04-08T21:24:58.519Z,94380.69
2023-04-08T21:27:24.848Z,94377.16
2023-04-08T21:29:54.181Z,94376.94
2023-04-08T21:32:20.496Z,94382.38
2023-04-08T21:34:46.854Z,94387.25
2023-04-08T21:37:13.256Z,94376.09
2023-04-08T21:39:39.586Z,94389.53
2023-04-08T21:42:06.388Z,94384.00
2023-04-08T21:44:33.322Z,94384.94
2023-04-08T21:47:02.074Z,94380.97
2023-04-08T21:49:37.789Z,94391.09
2023-04-08T21:52:04.821Z,94389.22
2023-04-08T21:54:31.156Z,94397.88
2023-04-08T21:56:59.535Z,94386.09
2023-04-08T21:59:26.015Z,94385.16
2023-04-08T22:01:52.351Z,94380.56
2023-04-08T22:04:19.608Z,94387.66
2023-04-08T22:06:49.133Z,94353.50
2023-04-08T22:09:25.695Z,94389.84
2023-04-08T22:11:51.976Z,94388.50
2023-04-08T22:14:18.382Z,94388.78
2023-04-08T22:16:45.049Z,94390.41
2023-04-08T22:19:11.724Z,94384.16
2023-04-08T22:21:38.031Z,94389.94
2023-04-08T22:24:06.774Z,94383.41
2023-04-08T22:26:33.094Z,94386.66
2023-04-08T22:28:59.397Z,94378.25
2023-04-08T22:31:25.869Z,94383.44
2023-04-08T22:33:52.359Z,94380.72
2023-04-08T22:36:20.783Z,94381.66
2023-04-08T22:38:47.091Z,94388.06
2023-04-08T22:41:17.915Z,94386.72
2023-04-08T22:43:44.221Z,94384.28
2023-04-08T22:46:10.783Z,94391.38
2023-04-08T22:48:37.119Z,94384.56
2023-04-08T22:51:04.036Z,94381.59
2023-04-08T22:53:30.314Z,94381.88
2023-04-08T22:55:57.815Z,94373.47
2023-04-08T22:58:26.115Z,94369.66
2023-04-08T23:00:52.384Z,94377.00
2023-04-08T23:03:18.716Z,94376.72
2023-04-08T23:05:45.376Z,94371.84
2023-04-08T23:08:11.739Z,94377.59
2023-04-08T23:10:38.042Z,94381.13
2023-04-08T23:13:04.371Z,94373.66
2023-04-08T23:15:31.020Z,94372.59
2023-04-08T23:17:57.609Z,94377.34
2023-04-08T23:20:23.987Z,94370.81
2023-04-08T23:22:50.569Z,94295.09
2023-04-08T23:25:16.946Z,94374.06
2023-04-08T23:27:43.272Z,94367.56
2023-04-08T23:30:09.747Z,94372.44
2023-04-08T23:32:36.122Z,94367.28
2023-04-08T23:35:02.669Z,94371.06
2023-04-08T23:37:29.297Z,94376.78
2023-04-08T23:39:55.657Z,94370.69
2023-04-08T23:42:26.985Z,94368.09
2023-04-08T23:44:54.280Z,94380.84
2023-04-08T23:47:20.751Z,94377.00
2023-04-08T23:49:47.159Z,94371.03
2023-04-08T23:52:13.441Z,94371.56
2023-04-08T23:54:40.022Z,94376.16
2023-04-08T23:57:06.313Z,94366.09
2023-04-08T23:59:33.079Z,94364.41
